createdAt,value
2018-12-12T00:01:57.848Z,17.33
2018-12-12T00:04:40.413Z,27.23
2018-12-12T00:07:22.955Z,18.67
2018-12-12T00:10:08.026Z,26.00
2018-12-12T00:12:50.673Z,25.60
2018-12-12T00:15:33.306Z,18.27
2018-12-12T00:18:15.796Z,15.30
2018-12-12T00:20:58.557Z,16.37
2018-12-12T00:23:41.160Z,22.03
2018-12-12T00:26:23.553Z,15.17
2018-12-12T00:29:06.460Z,19.93
2018-12-12T00:31:49.077Z,21.67
2018-12-12T00:34:32.557Z,21.10
2018-12-12T00:37:16.267Z,17.67
2018-12-12T00:39:59.030Z,15.93
2018-12-12T00:42:41.735Z,16.40
2018-12-12T00:45:24.373Z,13.10
2018-12-12T00:48:07.446Z,16.43
2018-12-12T00:50:56.264Z,13.33
2018-12-12T00:53:38.622Z,18.17
2018-12-12T00:56:21.169Z,23.90
2018-12-12T00:59:04.335Z,21.70
2018-12-12T01:01:46.593Z,19.77
2018-12-12T01:04:29.133Z,17.93
2018-12-12T01:07:11.790Z,20.67
2018-12-12T01:09:54.458Z,21.17
2018-12-12T01:12:37.221Z,22.50
2018-12-12T01:15:19.831Z,15.93
2018-12-12T01:18:02.443Z,20.10
2018-12-12T01:20:45.860Z,12.17
2018-12-12T01:23:29.049Z,17.43
2018-12-12T01:26:11.692Z,22.77
2018-12-12T01:28:54.462Z,17.37
2018-12-12T01:31:37.022Z,17.83
2018-12-12T01:34:19.804Z,22.00
2018-12-12T01:37:02.458Z,20.67
2018-12-12T01:39:45.509Z,15.83
2018-12-12T01:42:28.725Z,20.97
2018-12-12T01:45:11.356Z,17.20
2018-12-12T01:47:54.014Z,16.27
2018-12-12T01:50:36.800Z,18.93
2018-12-12T01:53:20.091Z,22.60
2018-12-12T01:56:03.158Z,28.17
2018-12-12T01:58:45.806Z,24.40
2018-12-12T02:01:30.305Z,33.03
2018-12-12T02:04:13.102Z,33.00
2018-12-12T02:06:56.016Z,39.17
2018-12-12T02:09:38.481Z,42.63
2018-12-12T02:12:21.029Z,46.07
2018-12-12T02:15:05.173Z,39.43
2018-12-12T02:17:48.739Z,42.07
2018-12-12T02:20:31.288Z,51.20
2018-12-12T02:23:14.045Z,43.23
2018-12-12T02:25:56.619Z,44.53
2018-12-12T02:28:39.333Z,33.23
2018-12-12T02:31:21.951Z,38.57
2018-12-12T02:34:04.834Z,42.43
2018-12-12T02:36:47.277Z,45.07
2018-12-12T02:39:30.162Z,55.80
2018-12-12T02:42:13.842Z,50.70
2018-12-12T02:44:56.621Z,54.83
2018-12-12T02:47:39.178Z,40.97
2018-12-12T02:50:21.702Z,44.87
2018-12-12T02:53:04.462Z,38.83
2018-12-12T02:55:46.975Z,32.63
2018-12-12T02:58:29.702Z,38.37
2018-12-12T03:01:12.423Z,45.33
2018-12-12T03:03:55.298Z,54.17
2018-12-12T03:06:37.962Z,42.93
2018-12-12T03:09:20.477Z,48.53
2018-12-12T03:12:03.621Z,42.33
2018-12-12T03:14:46.415Z,42.57
2018-12-12T03:17:29.225Z,38.87
2018-12-12T03:20:11.533Z,34.13
2018-12-12T03:22:55.201Z,48.63
2018-12-12T03:25:37.939Z,37.00
2018-12-12T03:28:20.711Z,28.13
2018-12-12T03:31:03.280Z,35.60
2018-12-12T03:33:46.391Z,33.53
2018-12-12T03:36:29.190Z,27.73
2018-12-12T03:39:11.670Z,41.00
2018-12-12T03:41:54.351Z,46.97
2018-12-12T03:44:37.400Z,29.03
2018-12-12T03:47:19.870Z,34.90
2018-12-12T03:50:02.570Z,33.63
2018-12-12T03:52:45.597Z,33.30
2018-12-12T03:55:28.097Z,28.07
2018-12-12T03:58:10.597Z,49.13
2018-12-12T04:00:53.777Z,37.20
2018-12-12T04:03:36.977Z,23.77
2018-12-12T04:06:19.561Z,26.07
2018-12-12T04:09:02.502Z,35.20
2018-12-12T04:11:45.468Z,29.10
2018-12-12T04:14:27.989Z,32.10
2018-12-12T04:17:12.053Z,32.93
2018-12-12T04:19:55.284Z,37.00
2018-12-12T04:22:38.033Z,34.97
2018-12-12T04:25:20.911Z,33.17
2018-12-12T04:28:03.534Z,27.17
2018-12-12T04:30:46.650Z,25.50
2018-12-12T04:33:30.057Z,24.17
2018-12-12T04:36:13.373Z,33.90
2018-12-12T04:38:56.324Z,28.93
2018-12-12T04:41:38.741Z,32.80
2018-12-12T04:44:21.789Z,26.40
2018-12-12T04:47:04.584Z,27.00
2018-12-12T04:49:46.990Z,29.07
2018-12-12T04:52:29.838Z,25.40
2018-12-12T04:55:12.321Z,24.73
2018-12-12T04:57:55.022Z,24.73
2018-12-12T05:00:37.773Z,21.17
2018-12-12T05:03:20.392Z,15.77
2018-12-12T05:06:03.110Z,29.50
2018-12-12T05:08:45.722Z,30.53
2018-12-12T05:11:28.380Z,20.63
2018-12-12T05:14:17.386Z,21.37
2018-12-12T05:17:00.065Z,36.17
2018-12-12T05:19:42.777Z,26.00
2018-12-12T05:22:25.326Z,31.17
2018-12-12T05:25:08.287Z,23.40
2018-12-12T05:27:50.910Z,20.43
2018-12-12T05:30:33.641Z,42.07
2018-12-12T05:33:16.302Z,24.97
2018-12-12T05:35:59.024Z,20.47
2018-12-12T05:38:41.617Z,29.23
2018-12-12T05:41:24.616Z,25.40
2018-12-12T05:44:07.347Z,27.10
2018-12-12T05:46:50.529Z,21.93
2018-12-12T05:49:34.352Z,19.10
2018-12-12T05:52:17.533Z,22.67
2018-12-12T05:55:00.002Z,48.37
2018-12-12T05:57:42.862Z,14.27
2018-12-12T06:00:25.412Z,23.43
2018-12-12T06:03:08.150Z,14.23
2018-12-12T06:05:50.845Z,27.33
2018-12-12T06:08:33.993Z,14.37
2018-12-12T06:11:16.450Z,18.80
2018-12-12T06:13:58.893Z,28.07
2018-12-12T06:16:41.596Z,25.60
2018-12-12T06:19:24.461Z,20.70
2018-12-12T06:22:07.266Z,21.03
2018-12-12T06:24:49.712Z,26.93
2018-12-12T06:27:32.329Z,23.60
2018-12-12T06:30:15.047Z,19.53
2018-12-12T06:32:57.736Z,26.23
2018-12-12T06:35:40.287Z,13.60
2018-12-12T06:38:23.131Z,18.40
2018-12-12T06:41:06.704Z,21.20
2018-12-12T06:43:49.753Z,15.60
2018-12-12T06:46:32.157Z,17.70
2018-12-12T06:49:15.913Z,15.20
2018-12-12T06:51:58.468Z,18.03
2018-12-12T06:54:41.260Z,16.47
2018-12-12T06:57:23.805Z,14.43
2018-12-12T07:00:06.471Z,18.83
2018-12-12T07:02:49.401Z,14.73
2018-12-12T07:05:32.150Z,24.30
2018-12-12T07:08:15.108Z,17.23
2018-12-12T07:10:58.218Z,21.00
2018-12-12T07:13:41.080Z,25.13
2018-12-12T07:16:24.142Z,17.20
2018-12-12T07:19:06.629Z,21.83
2018-12-12T07:21:49.197Z,20.73
2018-12-12T07:24:31.886Z,19.87
2018-12-12T07:27:14.625Z,26.60
2018-12-12T07:29:57.229Z,27.33
2018-12-12T07:32:40.271Z,18.03
2018-12-12T07:35:22.565Z,15.13
2018-12-12T07:38:05.225Z,22.10
2018-12-12T07:40:47.850Z,23.20
2018-12-12T07:43:30.436Z,23.80
2018-12-12T07:46:13.222Z,28.30
2018-12-12T07:48:55.797Z,27.50
2018-12-12T07:51:38.486Z,21.13
2018-12-12T07:54:21.169Z,19.90
2018-12-12T07:57:03.756Z,19.53
2018-12-12T07:59:46.449Z,18.77
2018-12-12T08:02:29.105Z,23.33
2018-12-12T08:05:11.769Z,26.07
2018-12-12T08:07:54.517Z,24.13
2018-12-12T08:10:37.049Z,23.33
2018-12-12T08:13:19.930Z,19.13
2018-12-12T08:16:02.514Z,31.23
2018-12-12T08:18:45.289Z,20.37
2018-12-12T08:21:27.653Z,28.47
2018-12-12T08:24:10.445Z,26.10
2018-12-12T08:26:53.109Z,19.20
2018-12-12T08:29:35.740Z,22.30
2018-12-12T08:32:18.337Z,46.37
2018-12-12T08:35:00.951Z,36.07
2018-12-12T08:37:44.191Z,18.30
2018-12-12T08:40:27.262Z,16.20
2018-12-12T08:43:09.919Z,14.80
2018-12-12T08:45:52.685Z,22.60
2018-12-12T08:48:35.871Z,20.50
2018-12-12T08:51:18.918Z,30.37
2018-12-12T08:54:01.607Z,11.63
2018-12-12T08:56:44.140Z,12.90
2018-12-12T08:59:26.890Z,14.83
2018-12-12T09:02:09.509Z,25.30
2018-12-12T09:04:52.223Z,18.70
2018-12-12T09:07:34.967Z,17.73
2018-12-12T09:10:17.526Z,18.07
2018-12-12T09:13:00.179Z,19.70
2018-12-12T09:15:42.885Z,15.90
2018-12-12T09:18:25.446Z,22.83
2018-12-12T09:21:08.001Z,15.50
2018-12-12T09:23:50.755Z,14.10
2018-12-12T09:26:33.435Z,17.67
2018-12-12T09:29:16.103Z,14.27
2018-12-12T09:31:58.761Z,13.27
2018-12-12T09:34:41.389Z,14.60
2018-12-12T09:37:24.251Z,13.17
2018-12-12T09:40:06.682Z,19.43
2018-12-12T09:42:49.241Z,16.83
2018-12-12T09:45:32.004Z,14.10
2018-12-12T09:48:19.253Z,16.27
2018-12-12T09:51:06.870Z,15.63
2018-12-12T09:53:43.904Z,11.63
2018-12-12T09:56:26.570Z,15.23
2018-12-12T09:59:09.112Z,30.10
2018-12-12T10:01:52.134Z,20.77
2018-12-12T10:04:34.504Z,21.30
2018-12-12T10:07:17.166Z,16.23
2018-12-12T10:09:59.881Z,15.20
2018-12-12T10:12:42.974Z,20.90
2018-12-12T10:15:25.239Z,14.83
2018-12-12T10:18:07.895Z,13.07
2018-12-12T10:20:50.772Z,18.57
2018-12-12T10:23:33.593Z,15.70
2018-12-12T10:26:16.101Z,20.33
2018-12-12T10:28:58.988Z,18.90
2018-12-12T10:31:41.437Z,27.50
2018-12-12T10:34:24.110Z,23.93
2018-12-12T10:37:06.595Z,24.73
2018-12-12T10:39:49.314Z,13.37
2018-12-12T10:42:32.255Z,18.00
2018-12-12T10:45:15.033Z,17.07
2018-12-12T10:47:57.630Z,23.73
2018-12-12T10:50:40.443Z,27.53
2018-12-12T10:53:23.091Z,23.53
2018-12-12T10:56:05.680Z,19.00
2018-12-12T10:58:48.329Z,20.80
2018-12-12T11:01:36.374Z,20.00
2018-12-12T11:04:19.944Z,22.40
2018-12-12T11:07:02.562Z,24.57
2018-12-12T11:09:45.183Z,18.43
2018-12-12T11:12:27.799Z,22.70
2018-12-12T11:15:10.687Z,15.73
2018-12-12T11:17:53.086Z,14.47
2018-12-12T11:20:35.776Z,27.43
2018-12-12T11:23:18.753Z,16.90
2018-12-12T11:26:01.073Z,25.40
2018-12-12T11:28:43.671Z,20.23
2018-12-12T11:31:26.376Z,21.93
2018-12-12T11:34:09.402Z,16.53
2018-12-12T11:36:51.918Z,17.50
2018-12-12T11:39:34.936Z,23.60
2018-12-12T11:42:17.221Z,24.17
2018-12-12T11:44:59.807Z,17.43
2018-12-12T11:47:43.497Z,18.40
2018-12-12T11:50:26.097Z,29.37
2018-12-12T11:53:08.687Z,15.03
2018-12-12T11:55:51.540Z,27.67
2018-12-12T11:58:34.896Z,20.50
2018-12-12T12:01:17.201Z,17.53
2018-12-12T12:03:59.860Z,25.90
2018-12-12T12:06:42.559Z,23.80
2018-12-12T12:09:25.253Z,25.30
2018-12-12T12:12:07.961Z,24.70
2018-12-12T12:14:50.823Z,23.50
2018-12-12T12:17:33.486Z,13.87
2018-12-12T12:20:16.049Z,15.63
2018-12-12T12:22:58.602Z,15.30
2018-12-12T12:25:41.178Z,18.43
2018-12-12T12:28:24.248Z,20.20
2018-12-12T12:31:06.694Z,24.67
2018-12-12T12:33:49.525Z,16.43
2018-12-12T12:36:31.904Z,21.77
2018-12-12T12:39:14.570Z,30.70
2018-12-12T12:41:57.271Z,21.33
2018-12-12T12:44:40.042Z,22.53
2018-12-12T12:47:22.677Z,19.47
2018-12-12T12:50:05.882Z,27.47
2018-12-12T12:52:48.594Z,23.30
2018-12-12T12:55:31.749Z,23.00
2018-12-12T12:58:14.945Z,25.03
2018-12-12T13:00:57.552Z,30.53
2018-12-12T13:03:39.886Z,16.90
2018-12-12T13:06:22.677Z,22.17
2018-12-12T13:09:07.694Z,20.70
2018-12-12T13:11:49.919Z,21.47
2018-12-12T13:14:32.665Z,22.67
2018-12-12T13:17:15.313Z,21.67
2018-12-12T13:19:57.982Z,19.00
2018-12-12T13:22:40.641Z,22.73
2018-12-12T13:25:23.354Z,17.47
2018-12-12T13:28:06.183Z,21.57
2018-12-12T13:30:49.306Z,24.60
2018-12-12T13:33:31.843Z,23.53
2018-12-12T13:36:14.425Z,18.20
2018-12-12T13:38:57.047Z,17.07
2018-12-12T13:41:39.779Z,19.97
2018-12-12T13:44:22.428Z,17.80
2018-12-12T13:47:05.113Z,22.03
2018-12-12T13:49:47.802Z,23.13
2018-12-12T13:52:30.558Z,24.43
2018-12-12T13:55:13.173Z,20.07
2018-12-12T13:57:55.912Z,18.50
2018-12-12T14:00:39.170Z,20.53
2018-12-12T14:03:22.305Z,15.03
2018-12-12T14:06:04.972Z,34.87
2018-12-12T14:08:47.543Z,23.37
2018-12-12T14:11:31.452Z,21.60
2018-12-12T14:14:14.077Z,17.87
2018-12-12T14:16:56.823Z,20.37
2018-12-12T14:19:39.537Z,20.20
2018-12-12T14:22:22.182Z,23.63
2018-12-12T14:25:04.651Z,18.47
2018-12-12T14:27:47.494Z,29.53
2018-12-12T14:30:30.104Z,23.33
2018-12-12T14:33:13.194Z,19.90
2018-12-12T14:36:00.925Z,17.97
2018-12-12T14:38:40.222Z,15.80
2018-12-12T14:41:23.018Z,15.33
2018-12-12T14:44:05.674Z,20.83
2018-12-12T14:46:48.289Z,23.30
2018-12-12T14:49:30.983Z,22.00
2018-12-12T14:52:13.562Z,19.67
2018-12-12T14:54:56.352Z,25.03
2018-12-12T14:57:38.675Z,30.83
2018-12-12T15:00:21.759Z,25.60
2018-12-12T15:03:04.215Z,25.40
2018-12-12T15:05:46.989Z,17.73
2018-12-12T15:08:29.623Z,14.93
2018-12-12T15:11:12.441Z,28.33
2018-12-12T15:13:55.159Z,26.23
2018-12-12T15:16:37.945Z,20.43
2018-12-12T15:19:20.721Z,16.17
2018-12-12T15:22:03.436Z,23.40
2018-12-12T15:24:47.644Z,19.37
2018-12-12T15:27:31.065Z,32.37
2018-12-12T15:30:13.444Z,15.50
2018-12-12T15:32:56.003Z,27.33
2018-12-12T15:35:38.635Z,20.47
2018-12-12T15:38:21.561Z,25.57
2018-12-12T15:41:03.883Z,22.50
2018-12-12T15:43:46.808Z,18.27
2018-12-12T15:46:29.158Z,24.40
2018-12-12T15:49:11.768Z,65.90
2018-12-12T15:51:54.818Z,28.87
2018-12-12T15:54:37.477Z,24.50
2018-12-12T15:57:19.834Z,22.40
2018-12-12T16:00:02.593Z,52.83
2018-12-12T16:02:45.918Z,60.33
2018-12-12T16:05:29.033Z,45.70
2018-12-12T16:08:11.526Z,87.27
2018-12-12T16:10:54.195Z,36.50
2018-12-12T16:13:37.058Z,30.63
2018-12-12T16:16:19.687Z,24.90
2018-12-12T16:19:02.366Z,41.03
2018-12-12T16:21:44.905Z,51.63
2018-12-12T16:24:27.426Z,58.17
2018-12-12T16:27:10.345Z,159.80
2018-12-12T16:29:53.005Z,159.77
2018-12-12T16:32:35.665Z,107.57
2018-12-12T16:35:18.057Z,55.70
2018-12-12T16:38:00.777Z,142.40
2018-12-12T16:40:43.441Z,74.80
2018-12-12T16:43:27.085Z,62.60
2018-12-12T16:46:10.053Z,57.07
2018-12-12T16:48:52.267Z,44.10
2018-12-12T16:51:34.751Z,44.30
2018-12-12T16:54:17.593Z,38.40
2018-12-12T16:57:00.438Z,63.67
2018-12-12T16:59:43.002Z,66.70
2018-12-12T17:02:25.809Z,173.07
2018-12-12T17:05:08.553Z,97.10
2018-12-12T17:07:51.205Z,89.77
2018-12-12T17:10:33.651Z,176.33
2018-12-12T17:13:16.595Z,85.70
2018-12-12T17:15:59.137Z,205.77
2018-12-12T17:18:41.660Z,317.93
2018-12-12T17:21:24.912Z,365.80
2018-12-12T17:24:08.253Z,198.67
2018-12-12T17:26:50.941Z,222.77
2018-12-12T17:29:33.561Z,149.23
2018-12-12T17:32:16.326Z,25.60
2018-12-12T17:34:59.192Z,32.90
2018-12-12T17:37:41.452Z,41.20
2018-12-12T17:40:24.529Z,33.20
2018-12-12T17:43:06.950Z,28.00
2018-12-12T17:45:49.521Z,53.07
2018-12-12T17:48:32.291Z,103.17
2018-12-12T17:51:15.046Z,61.73
2018-12-12T17:53:59.078Z,40.10
2018-12-12T17:56:43.917Z,30.73
2018-12-12T17:59:26.242Z,54.23
2018-12-12T18:02:08.913Z,25.90
2018-12-12T18:04:51.716Z,29.57
2018-12-12T18:07:35.110Z,35.87
2018-12-12T18:10:18.391Z,46.73
2018-12-12T18:13:01.101Z,50.03
2018-12-12T18:15:44.002Z,81.43
2018-12-12T18:18:27.146Z,111.97
2018-12-12T18:21:09.302Z,80.17
2018-12-12T18:23:52.565Z,43.13
2018-12-12T18:26:34.796Z,88.10
2018-12-12T18:29:17.133Z,104.87
2018-12-12T18:31:59.794Z,161.53
2018-12-12T18:34:42.496Z,230.43
2018-12-12T18:37:25.780Z,116.57
2018-12-12T18:40:07.946Z,79.03
2018-12-12T18:42:50.737Z,46.37
2018-12-12T18:45:33.163Z,39.80
2018-12-12T18:48:16.135Z,68.37
2018-12-12T18:50:58.621Z,98.13
2018-12-12T18:53:41.330Z,241.33
2018-12-12T18:56:23.821Z,227.83
2018-12-12T18:59:06.753Z,180.70
2018-12-12T19:01:49.917Z,187.13
2018-12-12T19:04:33.509Z,154.43
2018-12-12T19:07:15.770Z,176.20
2018-12-12T19:09:58.769Z,149.80
2018-12-12T19:12:41.266Z,147.67
2018-12-12T19:15:23.998Z,151.20
2018-12-12T19:18:07.025Z,143.10
2018-12-12T19:20:50.209Z,254.47
2018-12-12T19:23:33.788Z,214.03
2018-12-12T19:26:16.399Z,191.10
2018-12-12T19:28:59.646Z,85.60
2018-12-12T19:31:42.802Z,41.37
2018-12-12T19:34:26.493Z,80.33
2018-12-12T19:37:09.149Z,39.90
2018-12-12T19:39:52.237Z,30.27
2018-12-12T19:42:35.021Z,32.33
2018-12-12T19:45:17.601Z,38.83
2018-12-12T19:48:00.421Z,73.27
2018-12-12T19:50:43.169Z,30.60
2018-12-12T19:53:26.631Z,46.70
2018-12-12T19:56:09.577Z,29.53
2018-12-12T19:58:52.150Z,35.20
2018-12-12T20:01:34.895Z,38.73
2018-12-12T20:04:17.411Z,34.30
2018-12-12T20:07:00.184Z,22.10
2018-12-12T20:09:42.868Z,36.07
2018-12-12T20:12:25.749Z,29.57
2018-12-12T20:15:11.589Z,20.43
2018-12-12T20:17:53.959Z,35.17
2018-12-12T20:20:36.966Z,35.50
2018-12-12T20:23:19.672Z,27.40
2018-12-12T20:26:02.780Z,20.67
2018-12-12T20:28:45.010Z,34.27
2018-12-12T20:31:27.817Z,32.27
2018-12-12T20:34:10.708Z,29.67
2018-12-12T20:36:53.608Z,23.97
2018-12-12T20:39:35.937Z,24.43
2018-12-12T20:42:18.796Z,31.80
2018-12-12T20:45:01.919Z,13.67
2018-12-12T20:47:44.271Z,28.13
2018-12-12T20:50:26.917Z,24.17
2018-12-12T20:53:09.878Z,19.93
2018-12-12T20:55:52.109Z,29.00
2018-12-12T20:58:34.865Z,17.17
2018-12-12T21:01:17.783Z,23.53
2018-12-12T21:04:00.859Z,24.53
2018-12-12T21:06:44.540Z,19.07
2018-12-12T21:09:27.750Z,22.47
2018-12-12T21:12:10.455Z,23.80
2018-12-12T21:14:53.344Z,19.00
2018-12-12T21:17:35.779Z,24.50
2018-12-12T21:20:18.499Z,23.40
2018-12-12T21:23:01.274Z,29.03
2018-12-12T21:25:45.074Z,26.40
2018-12-12T21:28:28.283Z,17.40
2018-12-12T21:31:10.985Z,34.93
2018-12-12T21:33:53.519Z,25.47
2018-12-12T21:36:36.277Z,20.20
2018-12-12T21:39:18.713Z,19.07
2018-12-12T21:42:01.492Z,24.33
2018-12-12T21:44:44.391Z,26.33
2018-12-12T21:47:26.954Z,26.97
2018-12-12T21:50:10.059Z,27.90
2018-12-12T21:52:52.425Z,29.07
2018-12-12T21:55:34.933Z,18.30
2018-12-12T21:58:17.816Z,31.43
2018-12-12T22:01:00.393Z,17.87
2018-12-12T22:03:43.250Z,27.43
2018-12-12T22:06:26.020Z,22.67
2018-12-12T22:09:09.489Z,18.57
2018-12-12T22:11:52.078Z,31.97
2018-12-12T22:14:34.867Z,19.87
2018-12-12T22:17:17.657Z,23.90
2018-12-12T22:20:00.624Z,17.33
2018-12-12T22:22:43.021Z,35.33
2018-12-12T22:25:25.579Z,22.97
2018-12-12T22:28:08.349Z,19.90
2018-12-12T22:30:50.969Z,21.60
2018-12-12T22:33:33.684Z,26.63
2018-12-12T22:36:16.350Z,19.90
2018-12-12T22:38:58.945Z,22.40
2018-12-12T22:41:41.590Z,22.90
2018-12-12T22:44:24.428Z,15.80
2018-12-12T22:47:07.092Z,21.87
2018-12-12T22:49:49.568Z,24.77
2018-12-12T22:52:32.645Z,23.13
2018-12-12T22:55:15.790Z,19.37
2018-12-12T22:57:58.874Z,22.23
2018-12-12T23:00:44.001Z,21.50
2018-12-12T23:03:26.185Z,39.13
2018-12-12T23:06:09.255Z,19.03
2018-12-12T23:08:51.657Z,17.93
2018-12-12T23:11:34.429Z,14.93
2018-12-12T23:14:17.375Z,22.00
2018-12-12T23:16:59.798Z,26.60
2018-12-12T23:19:42.625Z,17.50
2018-12-12T23:22:25.349Z,20.27
2018-12-12T23:25:08.174Z,19.43
2018-12-12T23:27:50.982Z,20.43
2018-12-12T23:30:33.597Z,24.67
2018-12-12T23:33:16.847Z,21.10
2018-12-12T23:35:59.159Z,14.60
2018-12-12T23:38:41.857Z,21.30
2018-12-12T23:41:24.705Z,19.03
2018-12-12T23:44:07.654Z,17.30
2018-12-12T23:46:50.078Z,17.37
2018-12-12T23:49:32.710Z,29.20
2018-12-12T23:52:15.324Z,20.17
2018-12-12T23:54:58.187Z,22.17
2018-12-12T23:57:40.537Z,23.90
